« 惜愁-最後の日ニ 石垣空港 2013/3/6 wed | トップページ | 春雨 百里飛行場 2014/3/14 fri »

2014/03/12

惜愁-最後の日ホ 石垣空港 2013/3/6 wed

惜愁-最後の日ニからつづき

白保のホ でおしまい

まもなく18時、少し肌寒くなってきた。

20130306_roig_a01ja8974

RAC745 ROIG-ROYN JA8974 DHC-8-100

ROIG 060900Z 08009KT 9999 SCT035 21/14 Q1020

20130306_roig_a02ja8940

JTA626 ROIG-ROAH JA8940 B737-4Q3

20130306_roig_a03ja356k

ANA1780 ROIG-ROAH JA356K B737-5L9

20130306_roig_a04ja8597

JTA621

20130306_roig_a05ja353k

ANA1779

20130306_roig_a06ja8597

JTA621 ROAH-ROIG JA8597 B737-4Q3

20130306_roig_a07ja353k

20130306_roig_a08ja353k_2

20130306_roig_a09ja353k

ANA1779 ROAH-ROIG JA353K B737-5Y0

20130306_roig_a10ja8974

RAC838 ROIG-ROMY JA8974 DHC-8-100

20130306_roig_a11ss

陽も西表島の方に沈んでいく。

20130306_roig_a12track

エプロンでは引越しが始まって、地上支援機材がトラックに載せられていく。

20130306_roig_a13ss

イリティダ

20130306_roig_a14track

ホテル前の道路を機材が運ばれて行きます。

ROIG 061000Z 09009KT 9999 FEW035 21/14 Q1020

20130306_roig_a15ja8597

20130306_roig_a16ja8597

JTA078 ROIG-ROAH JA8597 B737-4Q3

20130306_roig_a17ja8974

RAC746 ROYN-ROIG JA8974 DHC-8-100

20130306_roig_a18ja353k

ANA1782 ROIG-ROAH JA353K B737-5Y0

20130306_roig_a19ja8974

RAC708 ROIG-ROAH JA8974 DHC-8-100

ROIG 061100Z 10011KT 9999 FEW035 21/14 Q1020

20130306_roig_a20ja8999

夜空にハイステーション

20130306_roig_a21ja8999

20130306_roig_a22ja8999

JTA625 ROAH-ROIG JA8999 B737-446

20130306_roig_a23ja8419

ANA1781 ROAH-ROIG JA8419 B737-54K

20130306_roig_a24ja8999

20130306_roig_a25ja8999

20130306_roig_a26ja8999

JTA628 ROIG-ROAH JA8999 B737-446

泣いても笑っても・・ これが営業最終便。ターミナルでは盛大なお別れセレモニーが行われたらしい。

20130306_roig_a27ja8419

20130306_roig_a28ja8419

20130306_roig_a29ja8419

AKX5542 ROIG-ROAH JA8419 B737-54K

実際の石垣空港最後の航空機は、ANA WINGSの那覇へのフェリー便。

20130306_roig_a30terminal

機影が見えなくなるまで見送って機材撤収をしていると、フッとRWライトが消えた。ターミナルはまだ引越し作業が続いていて灯りが点っていた。

長々と石垣空港最後の日を、思い出しながらつづってみました。

新石垣空港開港 は、一年前のブログを参照してください。

|

« 惜愁-最後の日ニ 石垣空港 2013/3/6 wed | トップページ | 春雨 百里飛行場 2014/3/14 fri »

石垣空港」カテゴリの記事

コメント

コメントを書く



(ウェブ上には掲載しません)


コメントは記事投稿者が公開するまで表示されません。



トラックバック


この記事へのトラックバック一覧です: 惜愁-最後の日ホ 石垣空港 2013/3/6 wed:

« 惜愁-最後の日ニ 石垣空港 2013/3/6 wed | トップページ | 春雨 百里飛行場 2014/3/14 fri »